Qiryat Bialik, Israel
Current Conditions -  °F | °C
As of 7:50 PM on Friday 31 Oct 2014 (Local Time) from LLHA Reporting Station
Broken Clouds Broken Clouds  
Wind Chill: 18°   Ceiling: 3500
Heat Index: 18°   Visibility: 6mi
Dew Point: 15°   Wind: 10mph
Humidity: 83%   Direction: 150°SSE
Pressure: 29.94"   Gusts: NA
Location:  32.83°N, 35.08°E
Report Text: LLHA 311650Z 15009KT 9999 BKN035 18/15 Q1014
Loading
Personal Weather Stations






























Interactive Weather Map
Tropical Storm Tracking
New forecast layout! Learn more

10-Day Weather Forecast

Advertisements
Track Severe Weather on mobile